createdAt,value
2017-06-11T00:02:11.957Z,19.10
2017-06-11T00:04:39.582Z,19.00
2017-06-11T00:07:07.065Z,19.00
2017-06-11T00:09:34.548Z,19.00
2017-06-11T00:12:02.281Z,18.90
2017-06-11T00:14:29.758Z,18.90
2017-06-11T00:16:57.268Z,18.90
2017-06-11T00:19:24.913Z,18.80
2017-06-11T00:21:52.464Z,18.80
2017-06-11T00:24:20.000Z,18.80
2017-06-11T00:26:47.525Z,18.70
2017-06-11T00:29:15.808Z,18.60
2017-06-11T00:31:43.284Z,18.60
2017-06-11T00:34:10.996Z,18.60
2017-06-11T00:36:38.637Z,18.60
2017-06-11T00:39:06.120Z,18.50
2017-06-11T00:41:33.653Z,18.50
2017-06-11T00:44:01.966Z,18.50
2017-06-11T00:46:30.113Z,18.40
2017-06-11T00:48:57.700Z,18.40
2017-06-11T00:51:26.559Z,18.30
2017-06-11T00:53:54.037Z,18.30
2017-06-11T00:56:27.184Z,18.30
2017-06-11T00:58:54.664Z,18.30
2017-06-11T01:01:22.178Z,18.30
2017-06-11T01:03:49.681Z,18.20
2017-06-11T01:06:17.969Z,18.20
2017-06-11T01:08:45.788Z,18.10
2017-06-11T01:11:13.260Z,18.20
2017-06-11T01:13:40.800Z,18.10
2017-06-11T01:16:08.524Z,18.10
2017-06-11T01:18:36.772Z,18.00
2017-06-11T01:21:04.252Z,18.00
2017-06-11T01:23:31.808Z,18.00
2017-06-11T01:25:59.336Z,17.90
2017-06-11T01:28:26.817Z,17.90
2017-06-11T01:30:54.524Z,17.90
2017-06-11T01:33:22.077Z,17.80
2017-06-11T01:35:49.609Z,17.80
2017-06-11T01:38:17.129Z,17.70
2017-06-11T01:40:44.612Z,17.70
2017-06-11T01:43:12.106Z,17.70
2017-06-11T01:45:39.637Z,17.60
2017-06-11T01:48:07.117Z,17.60
2017-06-11T01:50:34.593Z,17.60
2017-06-11T01:53:02.237Z,17.60
2017-06-11T01:55:29.721Z,17.50
2017-06-11T01:57:57.358Z,17.50
2017-06-11T02:00:25.144Z,17.50
2017-06-11T02:02:52.624Z,17.50
2017-06-11T02:05:20.114Z,17.50
2017-06-11T02:07:48.514Z,17.50
2017-06-11T02:10:15.996Z,17.50
2017-06-11T02:12:43.472Z,17.50
2017-06-11T02:15:11.232Z,17.50
2017-06-11T02:17:38.724Z,17.40
2017-06-11T02:20:06.200Z,17.40
2017-06-11T02:22:33.724Z,17.40
2017-06-11T02:25:01.209Z,17.30
2017-06-11T02:27:28.816Z,17.30
2017-06-11T02:29:57.101Z,17.20
2017-06-11T02:32:24.614Z,17.30
2017-06-11T02:34:52.101Z,17.20
2017-06-11T02:37:19.621Z,17.20
2017-06-11T02:39:47.868Z,17.10
2017-06-11T02:42:16.125Z,17.10
2017-06-11T02:44:44.409Z,17.10
2017-06-11T02:47:11.957Z,17.10
2017-06-11T02:49:39.442Z,17.10
2017-06-11T02:52:07.046Z,17.10
2017-06-11T02:54:34.528Z,17.00
2017-06-11T02:57:02.001Z,17.00
2017-06-11T02:59:30.420Z,17.00
2017-06-11T03:01:57.907Z,17.00
2017-06-11T03:04:25.392Z,17.00
2017-06-11T03:06:53.021Z,17.00
2017-06-11T03:09:20.500Z,17.00
2017-06-11T03:11:59.854Z,17.00
2017-06-11T03:14:27.337Z,17.00
2017-06-11T03:16:54.822Z,17.00
2017-06-11T03:19:22.588Z,16.90
2017-06-11T03:21:50.837Z,16.90
2017-06-11T03:24:18.347Z,16.90
2017-06-11T03:26:45.848Z,16.90
2017-06-11T03:29:14.100Z,16.90
2017-06-11T03:31:42.353Z,16.90
2017-06-11T03:34:10.029Z,16.90
2017-06-11T03:36:37.510Z,16.90
2017-06-11T03:39:04.994Z,16.90
2017-06-11T03:41:33.289Z,16.90
2017-06-11T03:44:00.772Z,16.80
2017-06-11T03:46:28.258Z,16.90
2017-06-11T03:48:56.032Z,16.90
2017-06-11T03:51:23.523Z,16.90
2017-06-11T03:53:51.816Z,16.90
2017-06-11T03:56:19.518Z,16.90
2017-06-11T03:58:46.999Z,16.90
2017-06-11T04:01:14.551Z,16.90
2017-06-11T04:03:42.179Z,16.90
2017-06-11T04:06:09.661Z,17.00
2017-06-11T04:08:37.145Z,17.00
2017-06-11T04:11:05.551Z,17.20
2017-06-11T04:13:33.037Z,17.20
2017-06-11T04:16:00.516Z,17.40
2017-06-11T04:18:28.042Z,17.50
2017-06-11T04:20:56.309Z,17.80
2017-06-11T04:23:24.553Z,17.90
2017-06-11T04:25:52.837Z,18.10
2017-06-11T04:28:21.109Z,18.00
2017-06-11T04:30:48.583Z,18.10
2017-06-11T04:33:16.329Z,18.30
2017-06-11T04:35:43.808Z,18.40
2017-06-11T04:38:11.280Z,18.50
2017-06-11T04:40:38.801Z,18.60
2017-06-11T04:43:07.056Z,18.70
2017-06-11T04:45:35.300Z,18.80
2017-06-11T04:48:03.193Z,18.80
2017-06-11T04:50:30.673Z,18.90
2017-06-11T04:52:58.147Z,19.00
2017-06-11T04:55:25.825Z,19.00
2017-06-11T04:57:53.300Z,19.10
2017-06-11T05:00:20.784Z,19.10
2017-06-11T05:02:49.257Z,19.20
2017-06-11T05:05:17.506Z,19.30
2017-06-11T05:07:45.752Z,19.40
2017-06-11T05:10:13.270Z,19.40
2017-06-11T05:12:40.740Z,19.40
2017-06-11T05:15:08.221Z,19.50
2017-06-11T05:17:35.716Z,19.60
2017-06-11T05:20:03.203Z,19.70
2017-06-11T05:22:30.744Z,19.90
2017-06-11T05:24:58.352Z,19.80
2017-06-11T05:27:25.828Z,19.90
2017-06-11T05:29:53.381Z,20.00
2017-06-11T05:32:21.220Z,20.10
2017-06-11T05:34:48.696Z,20.30
2017-06-11T05:37:16.208Z,20.30
2017-06-11T05:39:43.856Z,20.40
2017-06-11T05:42:11.340Z,20.40
2017-06-11T05:44:38.818Z,20.50
2017-06-11T05:47:07.204Z,20.60
2017-06-11T05:49:34.684Z,20.60
2017-06-11T05:52:02.309Z,20.70
2017-06-11T05:54:29.824Z,20.80
2017-06-11T05:56:58.076Z,20.90
2017-06-11T05:59:26.544Z,20.90
2017-06-11T06:01:54.032Z,20.90
2017-06-11T06:04:21.541Z,20.90
2017-06-11T06:06:49.193Z,21.00
2017-06-11T06:09:16.678Z,21.00
2017-06-11T06:11:44.185Z,21.00
2017-06-11T06:14:11.885Z,21.10
2017-06-11T06:16:39.368Z,21.10
2017-06-11T06:19:06.901Z,21.20
2017-06-11T06:21:34.420Z,21.20
2017-06-11T06:24:02.668Z,21.30
2017-06-11T06:26:30.149Z,21.30
2017-06-11T06:28:57.900Z,21.50
2017-06-11T06:31:25.384Z,21.60
2017-06-11T06:33:52.862Z,21.60
2017-06-11T06:36:21.169Z,22.00
2017-06-11T06:38:48.689Z,22.00
2017-06-11T06:41:16.221Z,22.20
2017-06-11T06:43:44.508Z,22.50
2017-06-11T06:46:11.988Z,22.40
2017-06-11T06:48:39.460Z,22.50
2017-06-11T06:51:07.719Z,22.60
2017-06-11T06:53:35.201Z,22.60
2017-06-11T06:56:02.684Z,22.80
2017-06-11T06:58:30.307Z,23.00
2017-06-11T07:00:58.139Z,23.10
2017-06-11T07:03:25.629Z,23.20
2017-06-11T07:05:53.137Z,23.40
2017-06-11T07:08:20.624Z,23.40
2017-06-11T07:10:48.868Z,23.20
2017-06-11T07:13:16.389Z,23.20
2017-06-11T07:15:43.869Z,23.00
2017-06-11T07:18:12.112Z,23.10
2017-06-11T07:20:39.635Z,23.10
2017-06-11T07:23:07.113Z,23.00
2017-06-11T07:25:35.356Z,22.80
2017-06-11T07:28:03.041Z,22.80
2017-06-11T07:30:30.536Z,22.80
2017-06-11T07:32:58.016Z,22.70
2017-06-11T07:35:25.774Z,22.60
2017-06-11T07:37:53.254Z,22.70
2017-06-11T07:40:20.737Z,22.80
2017-06-11T07:42:49.135Z,22.90
2017-06-11T07:45:16.622Z,22.90
2017-06-11T07:47:44.105Z,22.90
2017-06-11T07:50:11.649Z,22.90
2017-06-11T07:52:39.120Z,23.00
2017-06-11T07:55:06.600Z,23.10
2017-06-11T07:57:35.200Z,23.20
2017-06-11T08:00:02.697Z,23.20
2017-06-11T08:02:30.966Z,23.30
2017-06-11T08:04:58.461Z,23.30
2017-06-11T08:07:25.948Z,23.30
2017-06-11T08:09:53.445Z,23.40
2017-06-11T08:12:20.924Z,23.40
2017-06-11T08:14:48.408Z,23.50
2017-06-11T08:17:16.170Z,23.60
2017-06-11T08:19:43.682Z,23.60
2017-06-11T08:22:11.213Z,23.70
2017-06-11T08:24:39.719Z,23.80
2017-06-11T08:27:07.229Z,23.80
2017-06-11T08:29:35.476Z,23.80
2017-06-11T08:32:03.100Z,23.80
2017-06-11T08:34:30.687Z,23.90
2017-06-11T08:36:58.255Z,24.00
2017-06-11T08:39:25.996Z,24.20
2017-06-11T08:41:53.593Z,24.20
2017-06-11T08:44:21.139Z,24.30
2017-06-11T08:46:48.644Z,24.50
2017-06-11T08:49:16.121Z,24.60
2017-06-11T08:51:43.653Z,24.80
2017-06-11T08:54:11.149Z,25.00
2017-06-11T08:56:38.645Z,25.20
2017-06-11T08:59:06.168Z,25.20
2017-06-11T09:01:33.680Z,25.30
2017-06-11T09:04:01.225Z,25.40
2017-06-11T09:06:28.877Z,25.40
2017-06-11T09:08:56.383Z,25.40
2017-06-11T09:11:23.865Z,25.50
2017-06-11T09:13:51.357Z,25.80
2017-06-11T09:16:18.838Z,26.00
2017-06-11T09:18:46.593Z,26.30
2017-06-11T09:21:14.079Z,26.50
2017-06-11T09:23:41.556Z,26.70
2017-06-11T09:26:09.865Z,26.90
2017-06-11T09:28:37.332Z,26.90
2017-06-11T09:31:04.805Z,27.10
2017-06-11T09:33:33.826Z,27.70
2017-06-11T09:36:02.220Z,27.90
2017-06-11T09:38:29.809Z,27.90
2017-06-11T09:40:57.316Z,28.00
2017-06-11T09:43:24.860Z,28.10
2017-06-11T09:45:52.405Z,28.10
2017-06-11T09:48:19.948Z,28.10
2017-06-11T09:50:47.492Z,28.00
2017-06-11T09:53:15.065Z,28.10
2017-06-11T09:55:42.573Z,28.30
2017-06-11T09:58:10.060Z,28.20
2017-06-11T10:00:37.552Z,28.10
2017-06-11T10:03:05.069Z,28.00
2017-06-11T10:05:32.546Z,27.90
2017-06-11T10:08:00.024Z,28.00
2017-06-11T10:10:27.677Z,28.20
2017-06-11T10:12:55.161Z,28.50
2017-06-11T10:15:22.647Z,28.90
2017-06-11T10:17:50.164Z,29.30
2017-06-11T10:20:17.648Z,29.40
2017-06-11T10:22:45.530Z,29.70
2017-06-11T10:25:13.045Z,30.20
2017-06-11T10:27:40.526Z,30.30
2017-06-11T10:30:08.001Z,29.80
2017-06-11T10:32:35.494Z,29.70
2017-06-11T10:35:02.993Z,29.80
2017-06-11T10:37:30.474Z,30.00
2017-06-11T10:39:57.957Z,29.70
2017-06-11T10:42:25.584Z,29.60
2017-06-11T10:44:53.073Z,29.60
2017-06-11T10:47:20.553Z,29.80
2017-06-11T10:49:48.259Z,29.80
2017-06-11T10:52:15.749Z,29.90
2017-06-11T10:54:43.289Z,30.20
2017-06-11T10:57:10.902Z,30.30
2017-06-11T10:59:38.393Z,30.40
2017-06-11T11:02:05.873Z,30.50
2017-06-11T11:04:33.484Z,30.60
2017-06-11T11:07:01.030Z,30.60
2017-06-11T11:09:28.506Z,30.60
2017-06-11T11:11:56.013Z,31.10
2017-06-11T11:14:23.489Z,31.30
2017-06-11T11:16:50.969Z,31.20
2017-06-11T11:19:19.256Z,31.20
2017-06-11T11:21:46.739Z,31.20
2017-06-11T11:24:14.217Z,31.00
2017-06-11T11:26:41.709Z,31.50
2017-06-11T11:29:09.232Z,32.00
2017-06-11T11:31:36.708Z,31.90
2017-06-11T11:34:04.236Z,32.10
2017-06-11T11:36:31.712Z,32.30
2017-06-11T11:38:59.995Z,32.30
2017-06-11T11:41:27.597Z,32.30
2017-06-11T11:43:55.077Z,33.30
2017-06-11T11:46:22.576Z,33.50
2017-06-11T11:48:50.120Z,33.60
2017-06-11T11:51:17.638Z,33.20
2017-06-11T11:53:45.911Z,34.60
2017-06-11T11:56:13.428Z,34.50
2017-06-11T11:58:41.003Z,35.10
2017-06-11T12:01:08.487Z,35.20
2017-06-11T12:03:35.992Z,34.30
2017-06-11T12:06:03.479Z,33.70
2017-06-11T12:08:31.162Z,33.80
2017-06-11T12:10:59.450Z,34.60
2017-06-11T12:13:26.984Z,34.60
2017-06-11T12:15:54.536Z,34.70
2017-06-11T12:18:22.080Z,34.50
2017-06-11T12:20:49.616Z,34.60
2017-06-11T12:23:17.312Z,34.60
2017-06-11T12:25:44.797Z,34.40
2017-06-11T12:28:13.980Z,34.00
2017-06-11T12:30:42.260Z,33.70
2017-06-11T12:33:09.741Z,33.70
2017-06-11T12:35:37.213Z,34.00
2017-06-11T12:38:05.492Z,34.00
2017-06-11T12:40:32.964Z,34.00
2017-06-11T12:43:00.438Z,33.70
2017-06-11T12:45:28.073Z,33.50
2017-06-11T12:47:55.548Z,33.80
2017-06-11T12:50:23.790Z,34.20
2017-06-11T12:52:51.308Z,34.20
2017-06-11T12:55:19.308Z,34.60
2017-06-11T12:57:46.861Z,34.90
2017-06-11T13:00:14.529Z,35.10
2017-06-11T13:02:42.009Z,35.00
2017-06-11T13:05:09.484Z,34.10
2017-06-11T13:07:37.956Z,33.20
2017-06-11T13:10:05.433Z,33.20
2017-06-11T13:12:32.916Z,33.30
2017-06-11T13:15:00.588Z,33.20
2017-06-11T13:17:28.068Z,32.50
2017-06-11T13:19:55.541Z,32.00
2017-06-11T13:22:23.220Z,31.80
2017-06-11T13:24:50.698Z,31.80
2017-06-11T13:27:18.177Z,31.90
2017-06-11T13:29:45.680Z,31.90
2017-06-11T13:32:13.161Z,31.70
2017-06-11T13:34:40.640Z,31.50
2017-06-11T13:37:08.138Z,31.40
2017-06-11T13:39:35.624Z,31.50
2017-06-11T13:42:03.108Z,31.50
2017-06-11T13:44:30.805Z,31.30
2017-06-11T13:46:58.285Z,31.00
2017-06-11T13:49:25.760Z,30.70
2017-06-11T13:51:53.257Z,30.70
2017-06-11T13:54:20.736Z,30.50
2017-06-11T13:56:48.217Z,30.60
2017-06-11T13:59:15.802Z,30.50
2017-06-11T14:01:43.285Z,30.60
2017-06-11T14:04:11.533Z,30.40
2017-06-11T14:06:40.032Z,30.30
2017-06-11T14:09:08.254Z,30.30
2017-06-11T14:11:35.816Z,30.20
2017-06-11T14:14:03.412Z,30.20
2017-06-11T14:16:30.916Z,30.10
2017-06-11T14:18:58.392Z,30.00
2017-06-11T14:21:34.796Z,30.10
2017-06-11T14:24:03.047Z,29.90
2017-06-11T14:26:31.293Z,29.90
2017-06-11T14:28:58.797Z,29.90
2017-06-11T14:31:26.279Z,29.90
2017-06-11T14:33:54.167Z,29.90
2017-06-11T14:36:21.649Z,29.80
2017-06-11T14:38:49.125Z,29.70
2017-06-11T14:41:17.389Z,29.30
2017-06-11T14:43:45.701Z,29.40
2017-06-11T14:46:13.185Z,29.30
2017-06-11T14:48:40.708Z,29.00
2017-06-11T14:51:08.185Z,28.70
2017-06-11T14:53:36.446Z,28.30
2017-06-11T14:56:04.725Z,28.20
2017-06-11T14:58:32.667Z,28.20
2017-06-11T15:01:00.165Z,28.20
2017-06-11T15:03:27.760Z,28.30
2017-06-11T15:05:55.238Z,28.40
2017-06-11T15:08:22.756Z,28.40
2017-06-11T15:10:50.276Z,28.30
2017-06-11T15:13:18.557Z,28.50
2017-06-11T15:15:46.097Z,28.50
2017-06-11T15:18:13.868Z,28.60
2017-06-11T15:20:41.348Z,28.60
2017-06-11T15:23:08.932Z,28.60
2017-06-11T15:25:36.676Z,28.60
2017-06-11T15:28:04.217Z,28.60
2017-06-11T15:30:31.761Z,28.80
2017-06-11T15:32:59.275Z,29.20
2017-06-11T15:35:26.856Z,29.40
2017-06-11T15:37:54.397Z,29.80
2017-06-11T15:40:21.937Z,30.20
2017-06-11T15:42:49.480Z,30.60
2017-06-11T15:45:17.024Z,30.70
2017-06-11T15:47:44.552Z,30.70
2017-06-11T15:50:12.796Z,30.60
2017-06-11T15:52:40.273Z,30.60
2017-06-11T15:55:07.973Z,30.60
2017-06-11T15:57:35.460Z,30.60
2017-06-11T16:00:02.932Z,30.60
2017-06-11T16:02:30.593Z,30.70
2017-06-11T16:04:58.085Z,30.80
2017-06-11T16:07:25.588Z,30.80
2017-06-11T16:09:53.105Z,30.90
2017-06-11T16:12:20.580Z,30.60
2017-06-11T16:14:48.056Z,30.30
2017-06-11T16:17:15.644Z,30.10
2017-06-11T16:19:43.970Z,29.70
2017-06-11T16:22:11.492Z,29.70
2017-06-11T16:24:39.748Z,29.20
2017-06-11T16:27:07.988Z,29.10
2017-06-11T16:29:35.621Z,29.10
2017-06-11T16:32:03.104Z,28.80
2017-06-11T16:34:30.577Z,28.60
2017-06-11T16:36:58.090Z,28.20
2017-06-11T16:39:25.564Z,28.20
2017-06-11T16:41:53.040Z,28.20
2017-06-11T16:44:20.553Z,28.20
2017-06-11T16:46:48.885Z,28.30
2017-06-11T16:49:16.364Z,28.40
2017-06-11T16:51:44.221Z,28.50
2017-06-11T16:54:11.712Z,28.50
2017-06-11T16:56:39.960Z,28.50
2017-06-11T16:59:08.322Z,28.50
2017-06-11T17:01:36.576Z,28.20
2017-06-11T17:04:04.828Z,28.10
2017-06-11T17:06:32.405Z,28.10
2017-06-11T17:08:59.956Z,27.80
2017-06-11T17:11:27.433Z,27.50
2017-06-11T17:13:54.949Z,27.40
2017-06-11T17:16:22.425Z,27.20
2017-06-11T17:18:49.904Z,27.20
2017-06-11T17:21:18.305Z,27.20
2017-06-11T17:23:45.789Z,27.20
2017-06-11T17:26:13.272Z,27.20
2017-06-11T17:28:40.797Z,27.20
2017-06-11T17:31:09.055Z,27.20
2017-06-11T17:33:37.301Z,27.30
2017-06-11T17:36:04.797Z,27.20
2017-06-11T17:38:32.273Z,27.30
2017-06-11T17:40:59.752Z,27.30
2017-06-11T17:43:27.269Z,27.30
2017-06-11T17:45:54.757Z,27.30
2017-06-11T17:48:22.240Z,27.30
2017-06-11T17:50:50.265Z,27.20
2017-06-11T17:53:17.744Z,27.20
2017-06-11T17:55:45.225Z,27.10
2017-06-11T17:58:12.728Z,27.00
2017-06-11T18:00:40.215Z,26.90
2017-06-11T18:03:07.696Z,26.80
2017-06-11T18:05:35.500Z,26.70
2017-06-11T18:08:02.988Z,26.70
2017-06-11T18:10:30.468Z,26.70
2017-06-11T18:12:58.860Z,26.70
2017-06-11T18:15:26.341Z,26.70
2017-06-11T18:17:53.821Z,26.70
2017-06-11T18:20:22.104Z,26.70
2017-06-11T18:22:49.585Z,26.60
2017-06-11T18:25:17.065Z,26.70
2017-06-11T18:27:45.317Z,26.70
2017-06-11T18:30:13.602Z,26.60
2017-06-11T18:32:41.084Z,26.60
2017-06-11T18:35:08.564Z,26.60
2017-06-11T18:37:36.862Z,26.50
2017-06-11T18:40:04.357Z,26.50
2017-06-11T18:42:32.608Z,26.40
2017-06-11T18:45:00.173Z,26.40
2017-06-11T18:47:28.424Z,26.10
2017-06-11T18:49:56.672Z,26.10
2017-06-11T18:52:24.160Z,26.10
2017-06-11T18:54:51.638Z,26.00
2017-06-11T18:57:19.335Z,26.00
2017-06-11T18:59:46.824Z,26.00
2017-06-11T19:02:14.302Z,26.00
2017-06-11T19:04:42.892Z,25.90
2017-06-11T19:07:10.383Z,25.90
2017-06-11T19:09:37.864Z,25.90
2017-06-11T19:12:06.157Z,25.80
2017-06-11T19:14:33.709Z,25.70
2017-06-11T19:17:01.189Z,25.70
2017-06-11T19:19:28.710Z,25.70
2017-06-11T19:21:56.190Z,25.60
2017-06-11T19:24:24.432Z,25.50
2017-06-11T19:26:51.952Z,25.50
2017-06-11T19:29:19.445Z,25.50
2017-06-11T19:31:46.924Z,25.40
2017-06-11T19:34:14.408Z,25.40
2017-06-11T19:36:41.931Z,25.30
2017-06-11T19:39:09.421Z,25.30
2017-06-11T19:41:36.900Z,25.20
2017-06-11T19:44:04.404Z,25.20
2017-06-11T19:46:31.882Z,25.20
2017-06-11T19:48:59.364Z,25.10
2017-06-11T19:51:26.889Z,25.10
2017-06-11T19:53:54.373Z,25.00
2017-06-11T19:56:21.855Z,25.00
2017-06-11T19:58:49.374Z,24.90
2017-06-11T20:01:16.948Z,24.80
2017-06-11T20:03:44.476Z,24.70
2017-06-11T20:06:12.117Z,24.60
2017-06-11T20:08:39.600Z,24.60
2017-06-11T20:11:07.080Z,24.60
2017-06-11T20:13:35.345Z,24.50
2017-06-11T20:16:03.587Z,24.50
2017-06-11T20:18:31.096Z,24.60
2017-06-11T20:20:59.348Z,24.50
2017-06-11T20:23:27.637Z,24.50
2017-06-11T20:25:55.284Z,24.40
2017-06-11T20:28:22.848Z,24.50
2017-06-11T20:30:50.372Z,24.50
2017-06-11T20:33:18.009Z,24.40
2017-06-11T20:35:45.489Z,24.40
2017-06-11T20:38:12.969Z,24.30
2017-06-11T20:40:41.513Z,24.10
2017-06-11T20:43:08.997Z,24.10
2017-06-11T20:45:36.488Z,24.20
2017-06-11T20:48:03.994Z,24.20
2017-06-11T20:50:31.509Z,24.20
2017-06-11T20:52:59.761Z,24.00
2017-06-11T20:55:27.281Z,24.00
2017-06-11T20:57:54.760Z,23.90
2017-06-11T21:00:23.012Z,23.80
2017-06-11T21:02:50.513Z,23.80
2017-06-11T21:05:18.051Z,23.80
2017-06-11T21:07:45.533Z,23.80
2017-06-11T21:10:13.052Z,23.70
2017-06-11T21:12:40.751Z,23.50
2017-06-11T21:15:08.309Z,23.60
2017-06-11T21:17:36.885Z,23.30
2017-06-11T21:20:04.364Z,23.30
2017-06-11T21:22:31.868Z,23.30
2017-06-11T21:24:59.408Z,23.20
2017-06-11T21:27:26.956Z,23.20
2017-06-11T21:29:54.440Z,23.10
2017-06-11T21:32:21.948Z,23.00
2017-06-11T21:34:49.431Z,22.90
2017-06-11T21:37:17.030Z,22.80
2017-06-11T21:39:44.576Z,22.70
2017-06-11T21:42:12.320Z,22.60
2017-06-11T21:44:39.865Z,22.60
2017-06-11T21:47:07.401Z,22.50
2017-06-11T21:49:34.949Z,22.40
2017-06-11T21:52:02.496Z,22.30
2017-06-11T21:54:29.976Z,22.20
2017-06-11T21:56:57.540Z,22.20
2017-06-11T21:59:25.016Z,22.20
2017-06-11T22:01:52.538Z,22.10
2017-06-11T22:04:20.016Z,22.00
2017-06-11T22:06:47.561Z,21.90
2017-06-11T22:09:15.082Z,21.80
2017-06-11T22:11:43.365Z,21.70
2017-06-11T22:14:10.904Z,21.70
2017-06-11T22:16:38.656Z,21.70
2017-06-11T22:19:06.201Z,21.70
2017-06-11T22:21:33.749Z,21.60
2017-06-11T22:24:01.285Z,21.60
2017-06-11T22:26:28.761Z,21.50
2017-06-11T22:28:56.272Z,21.40
2017-06-11T22:31:23.792Z,21.40
2017-06-11T22:33:52.036Z,21.30
2017-06-11T22:36:19.521Z,21.30
2017-06-11T22:38:47.060Z,21.10
2017-06-11T22:41:14.605Z,21.10
2017-06-11T22:43:42.079Z,21.10
2017-06-11T22:46:09.596Z,21.10
2017-06-11T22:48:37.134Z,20.90
2017-06-11T22:51:04.980Z,20.80
2017-06-11T22:53:32.525Z,20.60
2017-06-11T22:56:00.010Z,20.60
2017-06-11T22:58:27.705Z,20.40
2017-06-11T23:00:55.976Z,20.40
2017-06-11T23:03:23.505Z,20.40
2017-06-11T23:05:51.352Z,20.40
2017-06-11T23:08:18.897Z,20.30
2017-06-11T23:10:46.372Z,20.20
2017-06-11T23:13:13.980Z,20.20
2017-06-11T23:15:41.468Z,20.10
2017-06-11T23:18:08.964Z,20.10
2017-06-11T23:20:36.508Z,19.90
2017-06-11T23:23:03.995Z,20.00
2017-06-11T23:25:31.481Z,20.00
2017-06-11T23:27:59.757Z,20.00
2017-06-11T23:30:27.297Z,20.00
2017-06-11T23:32:54.841Z,20.00
2017-06-11T23:35:22.388Z,20.00
2017-06-11T23:37:49.868Z,19.80
2017-06-11T23:40:17.345Z,19.90
2017-06-11T23:42:45.893Z,19.80
2017-06-11T23:45:13.374Z,19.80
2017-06-11T23:47:40.853Z,19.70
2017-06-11T23:50:08.469Z,19.50
2017-06-11T23:52:36.004Z,19.50
2017-06-11T23:55:03.578Z,19.40
2017-06-11T23:57:31.088Z,19.30
2017-06-11T23:59:59.362Z,19.40
